This is the latest recevied weather packets stored in our database for station/object DK4DO-10. If no packets are shown the sender has not sent any weather packets the latest 10 day(s).
| Time | Temp. | Humidity | Pressure | Rain* | Wind** | Luminosity | Snow |
|---|---|---|---|---|---|---|---|
| 1777491767 | 16.11° C | 19% | 1021.4 hPa | - | - | - | - |
| 1777491166 | 16.11° C | 19% | 1021.3 hPa | - | - | - | - |
| 1777490566 | 16.11° C | 18% | 1021.2 hPa | - | - | - | - |
| 1777489366 | 17.78° C | 18% | 1020.8 hPa | - | - | - | - |
| 1777488766 | 17.78° C | 17% | 1020.6 hPa | - | - | - | - |
| 1777486964 | 18.89° C | 15% | 1020.2 hPa | - | - | - | - |
| 1777486372 | 19.44° C | 16% | 1020.1 hPa | - | - | - | - |
| 1777485772 | 19.44° C | 16% | 1020 hPa | - | - | - | - |
| 1777483371 | 21.11° C | 14% | 1019.7 hPa | - | - | - | - |
| 1777480369 | 22.22° C | 15% | 1019.7 hPa | - | - | - | - |
| 1777479769 | 22.78° C | 14% | 1019.6 hPa | - | - | - | - |
| 1777477969 | 22.78° C | 14% | 1019.7 hPa | - | - | - | - |
| 1777477369 | 21.67° C | 14% | 1019.9 hPa | - | - | - | - |
| 1777476768 | 21.67° C | 15% | 1019.6 hPa | - | - | - | - |
| 1777475568 | 21.11° C | 15% | 1019.8 hPa | - | - | - | - |
| 1777473167 | 21.11° C | 15% | 1019.9 hPa | - | - | - | - |
| 1777472567 | 20.56° C | 15% | 1019.8 hPa | - | - | - | - |
| 1777471966 | 21.11° C | 15% | 1019.8 hPa | - | - | - | - |
| 1777471366 | 20.56° C | 15% | 1019.8 hPa | - | - | - | - |
| 1777470766 | 20.56° C | 16% | 1019.9 hPa | - | - | - | - |
| 1777469565 | 20.56° C | 16% | 1020 hPa | - | - | - | - |
| 1777468965 | 19.44° C | 16% | 1020.1 hPa | - | - | - | - |
| 1777468364 | 18.89° C | 17% | 1020.1 hPa | - | - | - | - |
| 1777467764 | 18.89° C | 16% | 1020.1 hPa | - | - | - | - |
| 1777467164 | 18.33° C | 17% | 1020.2 hPa | - | - | - | - |
* Rain since midnight (hover to see other rain measurements)
** Current wind speed in m/s (hover to see current wind gust speed)